sensor_id;sensor_type;location;lat;lon;timestamp;P1;durP1;ratioP1;P2;durP2;ratioP2
8060;SDS011;4073;42.626;25.386;2022-12-24T00:02:06;41.33;;;28.93;;
8060;SDS011;4073;42.626;25.386;2022-12-24T00:04:32;36.77;;;26.17;;
8060;SDS011;4073;42.626;25.386;2022-12-24T00:06:58;37.90;;;26.63;;
8060;SDS011;4073;42.626;25.386;2022-12-24T00:09:23;35.80;;;25.73;;
8060;SDS011;4073;42.626;25.386;2022-12-24T00:11:49;31.90;;;24.47;;
8060;SDS011;4073;42.626;25.386;2022-12-24T00:14:14;29.40;;;21.00;;
8060;SDS011;4073;42.626;25.386;2022-12-24T00:16:40;28.43;;;21.30;;
8060;SDS011;4073;42.626;25.386;2022-12-24T00:19:05;26.63;;;19.93;;
8060;SDS011;4073;42.626;25.386;2022-12-24T00:21:30;27.10;;;18.57;;
8060;SDS011;4073;42.626;25.386;2022-12-24T00:23:56;24.23;;;16.40;;
8060;SDS011;4073;42.626;25.386;2022-12-24T00:26:21;23.93;;;17.93;;
8060;SDS011;4073;42.626;25.386;2022-12-24T00:28:47;29.35;;;17.98;;
8060;SDS011;4073;42.626;25.386;2022-12-24T00:31:14;27.03;;;17.07;;
8060;SDS011;4073;42.626;25.386;2022-12-24T00:33:42;23.10;;;17.63;;
8060;SDS011;4073;42.626;25.386;2022-12-24T00:36:09;23.75;;;16.80;;
8060;SDS011;4073;42.626;25.386;2022-12-24T00:38:35;22.63;;;16.17;;
8060;SDS011;4073;42.626;25.386;2022-12-24T00:41:02;22.25;;;17.30;;
8060;SDS011;4073;42.626;25.386;2022-12-24T00:43:28;24.00;;;17.67;;
8060;SDS011;4073;42.626;25.386;2022-12-24T00:45:55;26.30;;;18.77;;
8060;SDS011;4073;42.626;25.386;2022-12-24T00:48:21;26.07;;;18.10;;
8060;SDS011;4073;42.626;25.386;2022-12-24T00:50:47;24.47;;;19.80;;
8060;SDS011;4073;42.626;25.386;2022-12-24T00:53:13;25.57;;;19.30;;
8060;SDS011;4073;42.626;25.386;2022-12-24T00:55:39;21.73;;;18.13;;
8060;SDS011;4073;42.626;25.386;2022-12-24T00:58:04;24.93;;;18.20;;
8060;SDS011;4073;42.626;25.386;2022-12-24T01:00:30;24.43;;;17.60;;
8060;SDS011;4073;42.626;25.386;2022-12-24T01:02:55;25.07;;;19.37;;
8060;SDS011;4073;42.626;25.386;2022-12-24T01:05:21;22.80;;;18.02;;
8060;SDS011;4073;42.626;25.386;2022-12-24T01:07:47;32.17;;;20.23;;
8060;SDS011;4073;42.626;25.386;2022-12-24T01:10:13;28.40;;;18.20;;
8060;SDS011;4073;42.626;25.386;2022-12-24T01:12:41;26.97;;;17.67;;
8060;SDS011;4073;42.626;25.386;2022-12-24T01:15:07;30.60;;;19.93;;
8060;SDS011;4073;42.626;25.386;2022-12-24T01:17:34;35.57;;;23.73;;
8060;SDS011;4073;42.626;25.386;2022-12-24T01:20:00;26.93;;;19.00;;
8060;SDS011;4073;42.626;25.386;2022-12-24T01:22:26;23.83;;;17.47;;
8060;SDS011;4073;42.626;25.386;2022-12-24T01:24:52;22.27;;;16.87;;
8060;SDS011;4073;42.626;25.386;2022-12-24T01:27:17;26.07;;;16.83;;
8060;SDS011;4073;42.626;25.386;2022-12-24T01:29:42;22.17;;;16.50;;
8060;SDS011;4073;42.626;25.386;2022-12-24T01:32:08;22.43;;;16.77;;
8060;SDS011;4073;42.626;25.386;2022-12-24T01:34:33;18.08;;;14.32;;
8060;SDS011;4073;42.626;25.386;2022-12-24T01:36:59;19.67;;;14.13;;
8060;SDS011;4073;42.626;25.386;2022-12-24T01:39:24;19.17;;;12.97;;
8060;SDS011;4073;42.626;25.386;2022-12-24T01:41:50;19.30;;;13.07;;
8060;SDS011;4073;42.626;25.386;2022-12-24T01:44:34;18.73;;;13.73;;
8060;SDS011;4073;42.626;25.386;2022-12-24T01:49:32;20.50;;;14.50;;
8060;SDS011;4073;42.626;25.386;2022-12-24T01:52:20;20.90;;;16.53;;
8060;SDS011;4073;42.626;25.386;2022-12-24T01:54:50;24.27;;;17.00;;
8060;SDS011;4073;42.626;25.386;2022-12-24T01:57:23;19.87;;;16.47;;
8060;SDS011;4073;42.626;25.386;2022-12-24T02:00:04;24.23;;;16.37;;
8060;SDS011;4073;42.626;25.386;2022-12-24T02:02:32;22.30;;;17.35;;
8060;SDS011;4073;42.626;25.386;2022-12-24T02:05:03;20.87;;;17.93;;
8060;SDS011;4073;42.626;25.386;2022-12-24T02:07:35;23.27;;;17.37;;
8060;SDS011;4073;42.626;25.386;2022-12-24T02:10:01;19.17;;;15.93;;
8060;SDS011;4073;42.626;25.386;2022-12-24T02:12:29;19.23;;;15.68;;
8060;SDS011;4073;42.626;25.386;2022-12-24T02:14:58;19.27;;;16.07;;
8060;SDS011;4073;42.626;25.386;2022-12-24T02:30:46;22.50;;;15.93;;
8060;SDS011;4073;42.626;25.386;2022-12-24T02:33:39;22.33;;;17.33;;
8060;SDS011;4073;42.626;25.386;2022-12-24T02:36:19;21.27;;;15.43;;
8060;SDS011;4073;42.626;25.386;2022-12-24T02:38:52;16.80;;;13.13;;
8060;SDS011;4073;42.626;25.386;2022-12-24T02:41:30;16.00;;;12.07;;
8060;SDS011;4073;42.626;25.386;2022-12-24T02:44:19;17.63;;;13.43;;
8060;SDS011;4073;42.626;25.386;2022-12-24T02:46:48;17.37;;;13.47;;
8060;SDS011;4073;42.626;25.386;2022-12-24T02:49:14;20.33;;;14.93;;
8060;SDS011;4073;42.626;25.386;2022-12-24T02:51:40;15.93;;;13.53;;
8060;SDS011;4073;42.626;25.386;2022-12-24T02:54:05;18.00;;;14.67;;
8060;SDS011;4073;42.626;25.386;2022-12-24T02:57:05;17.27;;;13.23;;
8060;SDS011;4073;42.626;25.386;2022-12-24T03:02:23;12.77;;;11.00;;
8060;SDS011;4073;42.626;25.386;2022-12-24T03:05:20;16.33;;;10.70;;
8060;SDS011;4073;42.626;25.386;2022-12-24T03:08:03;18.20;;;13.17;;
8060;SDS011;4073;42.626;25.386;2022-12-24T03:10:49;18.33;;;13.63;;
8060;SDS011;4073;42.626;25.386;2022-12-24T03:13:19;37.33;;;22.33;;
8060;SDS011;4073;42.626;25.386;2022-12-24T03:15:47;29.03;;;18.43;;
8060;SDS011;4073;42.626;25.386;2022-12-24T03:18:16;21.37;;;15.73;;
8060;SDS011;4073;42.626;25.386;2022-12-24T03:20:46;17.23;;;12.57;;
8060;SDS011;4073;42.626;25.386;2022-12-24T03:23:16;19.23;;;12.70;;
8060;SDS011;4073;42.626;25.386;2022-12-24T03:25:42;18.03;;;13.47;;
8060;SDS011;4073;42.626;25.386;2022-12-24T03:28:10;16.27;;;11.80;;
8060;SDS011;4073;42.626;25.386;2022-12-24T03:30:38;17.60;;;12.90;;
8060;SDS011;4073;42.626;25.386;2022-12-24T03:33:06;16.87;;;12.67;;
8060;SDS011;4073;42.626;25.386;2022-12-24T03:35:31;17.73;;;13.37;;
8060;SDS011;4073;42.626;25.386;2022-12-24T03:37:57;16.88;;;12.82;;
8060;SDS011;4073;42.626;25.386;2022-12-24T03:40:22;17.33;;;13.30;;
8060;SDS011;4073;42.626;25.386;2022-12-24T03:42:48;19.02;;;13.82;;
8060;SDS011;4073;42.626;25.386;2022-12-24T03:45:13;20.07;;;14.40;;
8060;SDS011;4073;42.626;25.386;2022-12-24T03:47:38;19.40;;;14.63;;
8060;SDS011;4073;42.626;25.386;2022-12-24T03:50:04;20.30;;;13.77;;
8060;SDS011;4073;42.626;25.386;2022-12-24T03:52:30;16.20;;;12.07;;
8060;SDS011;4073;42.626;25.386;2022-12-24T03:54:56;19.45;;;13.00;;
8060;SDS011;4073;42.626;25.386;2022-12-24T03:57:21;19.73;;;13.87;;
8060;SDS011;4073;42.626;25.386;2022-12-24T03:59:47;14.32;;;11.38;;
8060;SDS011;4073;42.626;25.386;2022-12-24T04:02:12;13.70;;;11.03;;
8060;SDS011;4073;42.626;25.386;2022-12-24T04:04:38;15.37;;;11.53;;
8060;SDS011;4073;42.626;25.386;2022-12-24T04:07:03;13.63;;;10.80;;
8060;SDS011;4073;42.626;25.386;2022-12-24T04:09:29;16.70;;;12.95;;
8060;SDS011;4073;42.626;25.386;2022-12-24T04:11:55;18.00;;;14.07;;
8060;SDS011;4073;42.626;25.386;2022-12-24T04:14:21;17.85;;;14.32;;
8060;SDS011;4073;42.626;25.386;2022-12-24T04:16:46;18.75;;;14.77;;
8060;SDS011;4073;42.626;25.386;2022-12-24T04:19:11;18.45;;;14.20;;
8060;SDS011;4073;42.626;25.386;2022-12-24T04:21:37;18.97;;;14.60;;
8060;SDS011;4073;42.626;25.386;2022-12-24T04:24:02;18.53;;;13.77;;
8060;SDS011;4073;42.626;25.386;2022-12-24T04:26:28;22.00;;;14.67;;
8060;SDS011;4073;42.626;25.386;2022-12-24T04:28:53;22.30;;;15.70;;
8060;SDS011;4073;42.626;25.386;2022-12-24T04:31:19;19.13;;;13.60;;
8060;SDS011;4073;42.626;25.386;2022-12-24T04:33:44;27.00;;;18.47;;
8060;SDS011;4073;42.626;25.386;2022-12-24T04:36:14;24.90;;;17.23;;
8060;SDS011;4073;42.626;25.386;2022-12-24T04:38:41;20.63;;;15.20;;
8060;SDS011;4073;42.626;25.386;2022-12-24T04:41:09;22.57;;;16.13;;
8060;SDS011;4073;42.626;25.386;2022-12-24T04:43:37;18.63;;;14.17;;
8060;SDS011;4073;42.626;25.386;2022-12-24T04:46:10;20.20;;;15.23;;
8060;SDS011;4073;42.626;25.386;2022-12-24T04:48:39;17.73;;;14.63;;
8060;SDS011;4073;42.626;25.386;2022-12-24T04:51:06;20.07;;;14.17;;
8060;SDS011;4073;42.626;25.386;2022-12-24T04:53:33;37.47;;;25.77;;
8060;SDS011;4073;42.626;25.386;2022-12-24T04:55:59;50.73;;;30.47;;
8060;SDS011;4073;42.626;25.386;2022-12-24T04:58:25;28.17;;;20.00;;
8060;SDS011;4073;42.626;25.386;2022-12-24T05:00:51;23.30;;;16.47;;
8060;SDS011;4073;42.626;25.386;2022-12-24T05:03:17;20.90;;;16.03;;
8060;SDS011;4073;42.626;25.386;2022-12-24T05:05:43;23.63;;;15.53;;
8060;SDS011;4073;42.626;25.386;2022-12-24T05:08:08;17.65;;;14.40;;
8060;SDS011;4073;42.626;25.386;2022-12-24T05:10:33;19.83;;;15.20;;
8060;SDS011;4073;42.626;25.386;2022-12-24T05:12:59;19.33;;;14.90;;
8060;SDS011;4073;42.626;25.386;2022-12-24T05:15:24;20.27;;;14.67;;
8060;SDS011;4073;42.626;25.386;2022-12-24T05:17:50;22.33;;;17.27;;
8060;SDS011;4073;42.626;25.386;2022-12-24T05:20:15;34.42;;;24.85;;
8060;SDS011;4073;42.626;25.386;2022-12-24T05:22:41;31.37;;;21.53;;
8060;SDS011;4073;42.626;25.386;2022-12-24T05:25:26;29.27;;;22.00;;
8060;SDS011;4073;42.626;25.386;2022-12-24T05:28:23;38.42;;;25.02;;
8060;SDS011;4073;42.626;25.386;2022-12-24T05:30:49;33.67;;;24.77;;
8060;SDS011;4073;42.626;25.386;2022-12-24T05:33:14;27.13;;;20.10;;
8060;SDS011;4073;42.626;25.386;2022-12-24T05:35:40;22.93;;;17.57;;
8060;SDS011;4073;42.626;25.386;2022-12-24T05:38:05;24.30;;;17.73;;
8060;SDS011;4073;42.626;25.386;2022-12-24T05:40:30;24.73;;;18.63;;
8060;SDS011;4073;42.626;25.386;2022-12-24T05:42:56;21.43;;;18.37;;
8060;SDS011;4073;42.626;25.386;2022-12-24T05:45:21;21.67;;;16.73;;
8060;SDS011;4073;42.626;25.386;2022-12-24T05:47:47;20.80;;;16.07;;
8060;SDS011;4073;42.626;25.386;2022-12-24T05:50:12;25.60;;;17.55;;
8060;SDS011;4073;42.626;25.386;2022-12-24T05:52:38;20.03;;;13.97;;
8060;SDS011;4073;42.626;25.386;2022-12-24T05:55:03;21.77;;;14.97;;
8060;SDS011;4073;42.626;25.386;2022-12-24T05:57:29;23.80;;;16.42;;
8060;SDS011;4073;42.626;25.386;2022-12-24T05:59:54;19.17;;;15.43;;
8060;SDS011;4073;42.626;25.386;2022-12-24T06:02:20;18.67;;;14.50;;
8060;SDS011;4073;42.626;25.386;2022-12-24T06:04:45;15.43;;;12.27;;
8060;SDS011;4073;42.626;25.386;2022-12-24T06:07:11;15.93;;;12.87;;
8060;SDS011;4073;42.626;25.386;2022-12-24T06:09:36;17.33;;;13.40;;
8060;SDS011;4073;42.626;25.386;2022-12-24T06:12:02;20.53;;;14.43;;
8060;SDS011;4073;42.626;25.386;2022-12-24T06:14:27;22.23;;;16.10;;
8060;SDS011;4073;42.626;25.386;2022-12-24T06:16:53;19.17;;;14.97;;
8060;SDS011;4073;42.626;25.386;2022-12-24T06:19:18;19.47;;;14.77;;
8060;SDS011;4073;42.626;25.386;2022-12-24T06:21:44;15.80;;;12.70;;
8060;SDS011;4073;42.626;25.386;2022-12-24T06:24:09;17.30;;;12.87;;
8060;SDS011;4073;42.626;25.386;2022-12-24T06:26:35;15.33;;;13.00;;
8060;SDS011;4073;42.626;25.386;2022-12-24T06:29:00;19.43;;;14.37;;
8060;SDS011;4073;42.626;25.386;2022-12-24T06:31:26;14.83;;;12.70;;
8060;SDS011;4073;42.626;25.386;2022-12-24T06:33:51;15.43;;;11.82;;
8060;SDS011;4073;42.626;25.386;2022-12-24T06:36:21;14.70;;;12.87;;
8060;SDS011;4073;42.626;25.386;2022-12-24T06:38:48;14.83;;;12.63;;
8060;SDS011;4073;42.626;25.386;2022-12-24T06:41:14;15.00;;;13.13;;
8060;SDS011;4073;42.626;25.386;2022-12-24T06:43:47;17.42;;;13.55;;
8060;SDS011;4073;42.626;25.386;2022-12-24T06:46:14;20.20;;;14.45;;
8060;SDS011;4073;42.626;25.386;2022-12-24T06:48:41;15.17;;;11.87;;
8060;SDS011;4073;42.626;25.386;2022-12-24T06:51:08;13.17;;;11.27;;
8060;SDS011;4073;42.626;25.386;2022-12-24T06:53:34;13.50;;;11.53;;
8060;SDS011;4073;42.626;25.386;2022-12-24T06:56:00;17.63;;;13.88;;
8060;SDS011;4073;42.626;25.386;2022-12-24T06:58:27;15.83;;;13.63;;
8060;SDS011;4073;42.626;25.386;2022-12-24T07:00:52;15.73;;;12.87;;
8060;SDS011;4073;42.626;25.386;2022-12-24T07:03:18;13.27;;;11.43;;
8060;SDS011;4073;42.626;25.386;2022-12-24T07:05:43;13.73;;;11.60;;
8060;SDS011;4073;42.626;25.386;2022-12-24T07:08:09;13.03;;;11.73;;
8060;SDS011;4073;42.626;25.386;2022-12-24T07:10:34;11.87;;;10.67;;
8060;SDS011;4073;42.626;25.386;2022-12-24T07:13:00;21.63;;;17.10;;
8060;SDS011;4073;42.626;25.386;2022-12-24T07:15:25;33.03;;;22.50;;
8060;SDS011;4073;42.626;25.386;2022-12-24T07:17:50;42.53;;;31.03;;
8060;SDS011;4073;42.626;25.386;2022-12-24T07:20:16;35.10;;;28.83;;
8060;SDS011;4073;42.626;25.386;2022-12-24T07:22:41;34.43;;;26.80;;
8060;SDS011;4073;42.626;25.386;2022-12-24T07:25:07;57.17;;;42.97;;
8060;SDS011;4073;42.626;25.386;2022-12-24T07:27:33;121.97;;;86.43;;
8060;SDS011;4073;42.626;25.386;2022-12-24T07:29:59;30.30;;;26.27;;
8060;SDS011;4073;42.626;25.386;2022-12-24T07:32:25;20.20;;;18.10;;
8060;SDS011;4073;42.626;25.386;2022-12-24T07:34:50;25.37;;;20.47;;
8060;SDS011;4073;42.626;25.386;2022-12-24T07:37:15;27.83;;;21.90;;
8060;SDS011;4073;42.626;25.386;2022-12-24T07:39:41;20.10;;;18.10;;
8060;SDS011;4073;42.626;25.386;2022-12-24T07:42:06;17.37;;;15.57;;
8060;SDS011;4073;42.626;25.386;2022-12-24T07:44:32;15.03;;;13.63;;
8060;SDS011;4073;42.626;25.386;2022-12-24T07:46:58;15.03;;;13.43;;
8060;SDS011;4073;42.626;25.386;2022-12-24T07:49:23;16.53;;;14.87;;
8060;SDS011;4073;42.626;25.386;2022-12-24T07:51:49;21.47;;;19.27;;
8060;SDS011;4073;42.626;25.386;2022-12-24T07:54:14;19.80;;;17.67;;
8060;SDS011;4073;42.626;25.386;2022-12-24T07:56:41;21.87;;;19.80;;
8060;SDS011;4073;42.626;25.386;2022-12-24T07:59:06;20.57;;;18.47;;
8060;SDS011;4073;42.626;25.386;2022-12-24T08:01:32;24.38;;;21.10;;
8060;SDS011;4073;42.626;25.386;2022-12-24T08:03:58;22.83;;;19.80;;
8060;SDS011;4073;42.626;25.386;2022-12-24T08:06:23;26.67;;;23.87;;
8060;SDS011;4073;42.626;25.386;2022-12-24T08:08:49;30.47;;;27.23;;
8060;SDS011;4073;42.626;25.386;2022-12-24T08:11:14;25.27;;;21.67;;
8060;SDS011;4073;42.626;25.386;2022-12-24T08:13:42;21.13;;;19.03;;
8060;SDS011;4073;42.626;25.386;2022-12-24T08:16:08;21.53;;;19.17;;
8060;SDS011;4073;42.626;25.386;2022-12-24T08:18:34;23.13;;;20.70;;
8060;SDS011;4073;42.626;25.386;2022-12-24T08:20:59;23.80;;;21.30;;
8060;SDS011;4073;42.626;25.386;2022-12-24T08:23:24;42.73;;;31.87;;
8060;SDS011;4073;42.626;25.386;2022-12-24T08:25:50;17.00;;;14.80;;
8060;SDS011;4073;42.626;25.386;2022-12-24T08:28:16;17.27;;;14.93;;
8060;SDS011;4073;42.626;25.386;2022-12-24T08:30:43;19.52;;;16.63;;
8060;SDS011;4073;42.626;25.386;2022-12-24T08:33:09;11.53;;;10.33;;
8060;SDS011;4073;42.626;25.386;2022-12-24T08:35:36;10.93;;;8.73;;
8060;SDS011;4073;42.626;25.386;2022-12-24T08:38:01;10.47;;;8.57;;
8060;SDS011;4073;42.626;25.386;2022-12-24T08:40:27;8.30;;;6.77;;
8060;SDS011;4073;42.626;25.386;2022-12-24T08:42:53;20.10;;;13.70;;
8060;SDS011;4073;42.626;25.386;2022-12-24T08:45:18;8.43;;;7.53;;
8060;SDS011;4073;42.626;25.386;2022-12-24T08:47:44;33.67;;;21.05;;
8060;SDS011;4073;42.626;25.386;2022-12-24T08:50:10;28.40;;;19.53;;
8060;SDS011;4073;42.626;25.386;2022-12-24T08:52:36;25.33;;;19.37;;
8060;SDS011;4073;42.626;25.386;2022-12-24T08:55:01;25.00;;;12.60;;
8060;SDS011;4073;42.626;25.386;2022-12-24T08:57:28;17.20;;;12.43;;
8060;SDS011;4073;42.626;25.386;2022-12-24T08:59:53;23.83;;;16.23;;
8060;SDS011;4073;42.626;25.386;2022-12-24T09:02:19;24.33;;;15.43;;
8060;SDS011;4073;42.626;25.386;2022-12-24T09:04:44;43.33;;;25.73;;
8060;SDS011;4073;42.626;25.386;2022-12-24T09:07:10;33.43;;;19.97;;
8060;SDS011;4073;42.626;25.386;2022-12-24T09:09:35;35.55;;;23.52;;
8060;SDS011;4073;42.626;25.386;2022-12-24T09:12:03;19.73;;;13.20;;
8060;SDS011;4073;42.626;25.386;2022-12-24T09:14:30;11.70;;;9.30;;
8060;SDS011;4073;42.626;25.386;2022-12-24T09:16:55;22.17;;;14.27;;
8060;SDS011;4073;42.626;25.386;2022-12-24T09:19:21;22.00;;;14.80;;
8060;SDS011;4073;42.626;25.386;2022-12-24T09:21:46;40.27;;;25.20;;
8060;SDS011;4073;42.626;25.386;2022-12-24T09:24:12;28.90;;;19.23;;
8060;SDS011;4073;42.626;25.386;2022-12-24T09:26:38;25.17;;;15.90;;
8060;SDS011;4073;42.626;25.386;2022-12-24T09:29:05;10.50;;;7.23;;
8060;SDS011;4073;42.626;25.386;2022-12-24T09:31:31;16.93;;;11.40;;
8060;SDS011;4073;42.626;25.386;2022-12-24T09:33:57;30.77;;;20.17;;
8060;SDS011;4073;42.626;25.386;2022-12-24T09:36:22;22.40;;;15.60;;
8060;SDS011;4073;42.626;25.386;2022-12-24T09:38:48;40.33;;;26.20;;
8060;SDS011;4073;42.626;25.386;2022-12-24T09:41:15;25.97;;;14.40;;
8060;SDS011;4073;42.626;25.386;2022-12-24T09:46:48;26.55;;;17.48;;
8060;SDS011;4073;42.626;25.386;2022-12-24T09:49:17;29.73;;;17.88;;
8060;SDS011;4073;42.626;25.386;2022-12-24T09:51:51;14.53;;;10.87;;
8060;SDS011;4073;42.626;25.386;2022-12-24T09:56:47;22.33;;;17.23;;
8060;SDS011;4073;42.626;25.386;2022-12-24T09:59:20;18.83;;;12.57;;
8060;SDS011;4073;42.626;25.386;2022-12-24T10:01:48;12.57;;;9.85;;
8060;SDS011;4073;42.626;25.386;2022-12-24T10:04:16;5.23;;;4.60;;
8060;SDS011;4073;42.626;25.386;2022-12-24T10:06:57;12.90;;;10.48;;
8060;SDS011;4073;42.626;25.386;2022-12-24T10:12:49;8.80;;;6.07;;
8060;SDS011;4073;42.626;25.386;2022-12-24T10:20:53;9.93;;;7.63;;
8060;SDS011;4073;42.626;25.386;2022-12-24T10:31:35;6.10;;;5.10;;
8060;SDS011;4073;42.626;25.386;2022-12-24T10:34:09;9.53;;;6.90;;
8060;SDS011;4073;42.626;25.386;2022-12-24T10:36:42;11.50;;;9.40;;
8060;SDS011;4073;42.626;25.386;2022-12-24T10:39:16;12.20;;;9.95;;
8060;SDS011;4073;42.626;25.386;2022-12-24T10:41:46;11.13;;;8.33;;
8060;SDS011;4073;42.626;25.386;2022-12-24T10:44:14;9.63;;;8.53;;
8060;SDS011;4073;42.626;25.386;2022-12-24T10:46:42;10.50;;;8.10;;
8060;SDS011;4073;42.626;25.386;2022-12-24T10:49:53;9.93;;;7.20;;
8060;SDS011;4073;42.626;25.386;2022-12-24T10:55:20;12.30;;;8.53;;
8060;SDS011;4073;42.626;25.386;2022-12-24T10:57:46;9.73;;;7.77;;
8060;SDS011;4073;42.626;25.386;2022-12-24T11:00:23;10.00;;;8.87;;
8060;SDS011;4073;42.626;25.386;2022-12-24T11:02:49;11.10;;;8.50;;
8060;SDS011;4073;42.626;25.386;2022-12-24T11:05:34;10.13;;;8.63;;
8060;SDS011;4073;42.626;25.386;2022-12-24T11:08:04;12.68;;;8.52;;
8060;SDS011;4073;42.626;25.386;2022-12-24T11:10:43;18.97;;;10.10;;
8060;SDS011;4073;42.626;25.386;2022-12-24T11:13:21;13.73;;;9.60;;
8060;SDS011;4073;42.626;25.386;2022-12-24T11:15:48;31.73;;;19.50;;
8060;SDS011;4073;42.626;25.386;2022-12-24T11:18:24;35.70;;;21.60;;
8060;SDS011;4073;42.626;25.386;2022-12-24T11:20:50;19.07;;;15.03;;
8060;SDS011;4073;42.626;25.386;2022-12-24T11:23:17;19.50;;;14.35;;
8060;SDS011;4073;42.626;25.386;2022-12-24T11:25:46;18.60;;;13.40;;
8060;SDS011;4073;42.626;25.386;2022-12-24T11:28:22;29.07;;;19.47;;
8060;SDS011;4073;42.626;25.386;2022-12-24T11:33:48;34.00;;;25.10;;
8060;SDS011;4073;42.626;25.386;2022-12-24T11:36:18;32.77;;;23.70;;
8060;SDS011;4073;42.626;25.386;2022-12-24T11:38:53;18.40;;;14.50;;
8060;SDS011;4073;42.626;25.386;2022-12-24T11:41:21;10.55;;;8.93;;
8060;SDS011;4073;42.626;25.386;2022-12-24T11:43:48;9.37;;;7.90;;
8060;SDS011;4073;42.626;25.386;2022-12-24T11:52:02;8.77;;;6.33;;
8060;SDS011;4073;42.626;25.386;2022-12-24T11:54:30;7.88;;;5.30;;
8060;SDS011;4073;42.626;25.386;2022-12-24T11:57:01;8.50;;;5.15;;
8060;SDS011;4073;42.626;25.386;2022-12-24T12:02:20;5.30;;;4.40;;
8060;SDS011;4073;42.626;25.386;2022-12-24T12:04:48;7.50;;;6.07;;
8060;SDS011;4073;42.626;25.386;2022-12-24T12:07:19;5.90;;;5.07;;
8060;SDS011;4073;42.626;25.386;2022-12-24T12:09:58;5.20;;;4.67;;
8060;SDS011;4073;42.626;25.386;2022-12-24T12:12:32;8.77;;;5.90;;
8060;SDS011;4073;42.626;25.386;2022-12-24T12:15:05;9.10;;;7.93;;
8060;SDS011;4073;42.626;25.386;2022-12-24T12:20:23;11.50;;;9.17;;
8060;SDS011;4073;42.626;25.386;2022-12-24T12:25:50;17.10;;;13.03;;
8060;SDS011;4073;42.626;25.386;2022-12-24T12:28:21;19.93;;;12.30;;
8060;SDS011;4073;42.626;25.386;2022-12-24T12:31:21;13.97;;;12.37;;
8060;SDS011;4073;42.626;25.386;2022-12-24T12:33:38;14.17;;;10.73;;
8060;SDS011;4073;42.626;25.386;2022-12-24T12:36:14;17.53;;;11.97;;
8060;SDS011;4073;42.626;25.386;2022-12-24T12:38:44;12.90;;;10.57;;
8060;SDS011;4073;42.626;25.386;2022-12-24T12:46:12;14.73;;;10.33;;
8060;SDS011;4073;42.626;25.386;2022-12-24T12:58:21;12.80;;;11.37;;
8060;SDS011;4073;42.626;25.386;2022-12-24T13:00:52;16.07;;;13.10;;
8060;SDS011;4073;42.626;25.386;2022-12-24T13:25:34;20.43;;;17.47;;
8060;SDS011;4073;42.626;25.386;2022-12-24T13:30:49;9.40;;;8.50;;
8060;SDS011;4073;42.626;25.386;2022-12-24T13:36:04;14.90;;;10.57;;
8060;SDS011;4073;42.626;25.386;2022-12-24T13:54:46;22.83;;;15.73;;
8060;SDS011;4073;42.626;25.386;2022-12-24T13:57:37;21.55;;;15.52;;
8060;SDS011;4073;42.626;25.386;2022-12-24T14:00:07;24.80;;;13.10;;
8060;SDS011;4073;42.626;25.386;2022-12-24T14:05:30;16.83;;;12.35;;
8060;SDS011;4073;42.626;25.386;2022-12-24T14:08:01;15.60;;;11.80;;
8060;SDS011;4073;42.626;25.386;2022-12-24T14:10:30;19.23;;;12.53;;
8060;SDS011;4073;42.626;25.386;2022-12-24T14:13:00;27.67;;;14.27;;
8060;SDS011;4073;42.626;25.386;2022-12-24T14:15:56;18.50;;;13.17;;
8060;SDS011;4073;42.626;25.386;2022-12-24T14:18:26;14.45;;;12.30;;
8060;SDS011;4073;42.626;25.386;2022-12-24T14:20:53;23.50;;;16.70;;
8060;SDS011;4073;42.626;25.386;2022-12-24T14:26:07;26.30;;;15.63;;
8060;SDS011;4073;42.626;25.386;2022-12-24T14:28:39;23.10;;;17.00;;
8060;SDS011;4073;42.626;25.386;2022-12-24T14:31:15;24.10;;;16.60;;
8060;SDS011;4073;42.626;25.386;2022-12-24T14:33:42;40.10;;;27.10;;
8060;SDS011;4073;42.626;25.386;2022-12-24T14:36:08;66.53;;;49.33;;
8060;SDS011;4073;42.626;25.386;2022-12-24T14:38:35;64.07;;;49.77;;
8060;SDS011;4073;42.626;25.386;2022-12-24T14:43:41;39.77;;;31.63;;
8060;SDS011;4073;42.626;25.386;2022-12-24T14:48:54;53.37;;;39.13;;
8060;SDS011;4073;42.626;25.386;2022-12-24T14:56:40;57.57;;;45.17;;
8060;SDS011;4073;42.626;25.386;2022-12-24T14:59:15;58.63;;;42.97;;
8060;SDS011;4073;42.626;25.386;2022-12-24T15:01:42;61.33;;;43.70;;
8060;SDS011;4073;42.626;25.386;2022-12-24T15:06:34;59.60;;;43.87;;
8060;SDS011;4073;42.626;25.386;2022-12-24T15:09:02;72.43;;;51.37;;
8060;SDS011;4073;42.626;25.386;2022-12-24T15:11:28;59.75;;;45.05;;
8060;SDS011;4073;42.626;25.386;2022-12-24T15:13:55;61.73;;;44.10;;
8060;SDS011;4073;42.626;25.386;2022-12-24T15:16:24;72.20;;;55.67;;
8060;SDS011;4073;42.626;25.386;2022-12-24T15:18:51;80.57;;;57.35;;
8060;SDS011;4073;42.626;25.386;2022-12-24T15:21:30;60.35;;;48.17;;
8060;SDS011;4073;42.626;25.386;2022-12-24T15:23:58;63.47;;;46.40;;
8060;SDS011;4073;42.626;25.386;2022-12-24T15:26:26;85.40;;;57.78;;
8060;SDS011;4073;42.626;25.386;2022-12-24T15:28:59;104.03;;;67.97;;
8060;SDS011;4073;42.626;25.386;2022-12-24T15:31:25;86.97;;;61.87;;
8060;SDS011;4073;42.626;25.386;2022-12-24T15:33:55;77.53;;;57.90;;
8060;SDS011;4073;42.626;25.386;2022-12-24T15:36:25;78.60;;;55.30;;
8060;SDS011;4073;42.626;25.386;2022-12-24T15:38:53;58.40;;;45.93;;
8060;SDS011;4073;42.626;25.386;2022-12-24T15:41:35;59.67;;;47.50;;
8060;SDS011;4073;42.626;25.386;2022-12-24T15:44:23;62.60;;;47.23;;
8060;SDS011;4073;42.626;25.386;2022-12-24T15:46:50;61.00;;;47.83;;
8060;SDS011;4073;42.626;25.386;2022-12-24T15:49:26;59.63;;;47.57;;
8060;SDS011;4073;42.626;25.386;2022-12-24T15:52:00;60.60;;;47.97;;
8060;SDS011;4073;42.626;25.386;2022-12-24T15:54:28;58.47;;;44.80;;
8060;SDS011;4073;42.626;25.386;2022-12-24T15:56:54;60.30;;;48.73;;
8060;SDS011;4073;42.626;25.386;2022-12-24T15:59:22;56.07;;;46.10;;
8060;SDS011;4073;42.626;25.386;2022-12-24T16:01:53;50.40;;;42.50;;
8060;SDS011;4073;42.626;25.386;2022-12-24T16:04:25;51.17;;;42.60;;
8060;SDS011;4073;42.626;25.386;2022-12-24T16:09:31;47.03;;;38.60;;
8060;SDS011;4073;42.626;25.386;2022-12-24T16:12:00;75.63;;;52.97;;
8060;SDS011;4073;42.626;25.386;2022-12-24T16:14:26;67.53;;;50.30;;
8060;SDS011;4073;42.626;25.386;2022-12-24T16:16:53;76.30;;;52.80;;
8060;SDS011;4073;42.626;25.386;2022-12-24T16:21:51;65.47;;;52.50;;
8060;SDS011;4073;42.626;25.386;2022-12-24T16:26:46;83.07;;;64.40;;
8060;SDS011;4073;42.626;25.386;2022-12-24T16:29:12;76.03;;;58.30;;
8060;SDS011;4073;42.626;25.386;2022-12-24T16:31:57;57.97;;;44.37;;
8060;SDS011;4073;42.626;25.386;2022-12-24T16:34:24;92.47;;;67.40;;
8060;SDS011;4073;42.626;25.386;2022-12-24T16:36:51;90.47;;;69.13;;
8060;SDS011;4073;42.626;25.386;2022-12-24T16:41:47;90.43;;;71.43;;
8060;SDS011;4073;42.626;25.386;2022-12-24T16:44:41;34.33;;;30.63;;
8060;SDS011;4073;42.626;25.386;2022-12-24T16:47:18;39.07;;;30.93;;
8060;SDS011;4073;42.626;25.386;2022-12-24T16:49:56;44.63;;;35.17;;
8060;SDS011;4073;42.626;25.386;2022-12-24T16:52:23;39.40;;;32.80;;
8060;SDS011;4073;42.626;25.386;2022-12-24T16:54:52;33.27;;;26.93;;
8060;SDS011;4073;42.626;25.386;2022-12-24T16:57:19;24.37;;;21.00;;
8060;SDS011;4073;42.626;25.386;2022-12-24T16:59:45;25.30;;;21.83;;
8060;SDS011;4073;42.626;25.386;2022-12-24T17:02:15;23.97;;;20.97;;
8060;SDS011;4073;42.626;25.386;2022-12-24T17:04:42;22.03;;;18.23;;
8060;SDS011;4073;42.626;25.386;2022-12-24T17:07:11;37.83;;;28.42;;
8060;SDS011;4073;42.626;25.386;2022-12-24T17:09:39;25.40;;;19.67;;
8060;SDS011;4073;42.626;25.386;2022-12-24T17:12:05;24.90;;;19.80;;
8060;SDS011;4073;42.626;25.386;2022-12-24T17:14:31;19.00;;;13.30;;